sensor_id;sensor_type;location;lat;lon;timestamp;temperature;humidity
75648;DHT22;64238;51.466;7.260;2022-11-24T00:01:48;23.90;45.10
75648;DHT22;64238;51.466;7.260;2022-11-24T00:04:14;23.90;45.10
75648;DHT22;64238;51.466;7.260;2022-11-24T00:06:39;23.80;45.10
75648;DHT22;64238;51.466;7.260;2022-11-24T00:09:05;23.80;44.80
75648;DHT22;64238;51.466;7.260;2022-11-24T00:11:34;23.80;45.10
75648;DHT22;64238;51.466;7.260;2022-11-24T00:14:04;23.90;45.00
75648;DHT22;64238;51.466;7.260;2022-11-24T00:16:34;23.90;44.90
75648;DHT22;64238;51.466;7.260;2022-11-24T00:19:02;23.90;44.90
75648;DHT22;64238;51.466;7.260;2022-11-24T00:21:29;23.80;44.90
75648;DHT22;64238;51.466;7.260;2022-11-24T00:23:56;23.90;45.10
75648;DHT22;64238;51.466;7.260;2022-11-24T00:26:26;23.80;45.10
75648;DHT22;64238;51.466;7.260;2022-11-24T00:28:55;23.80;45.10
75648;DHT22;64238;51.466;7.260;2022-11-24T00:31:31;23.90;45.10
75648;DHT22;64238;51.466;7.260;2022-11-24T00:33:58;23.90;44.90
75648;DHT22;64238;51.466;7.260;2022-11-24T00:36:27;23.90;45.10
75648;DHT22;64238;51.466;7.260;2022-11-24T00:38:54;23.90;45.20
75648;DHT22;64238;51.466;7.260;2022-11-24T00:41:20;23.80;44.80
75648;DHT22;64238;51.466;7.260;2022-11-24T00:43:45;23.80;45.10
75648;DHT22;64238;51.466;7.260;2022-11-24T00:46:11;23.80;45.00
75648;DHT22;64238;51.466;7.260;2022-11-24T00:48:37;23.90;44.90
75648;DHT22;64238;51.466;7.260;2022-11-24T00:51:05;23.80;44.90
75648;DHT22;64238;51.466;7.260;2022-11-24T00:53:31;23.80;45.10
75648;DHT22;64238;51.466;7.260;2022-11-24T00:55:57;23.90;45.00
75648;DHT22;64238;51.466;7.260;2022-11-24T00:58:23;23.80;45.10
75648;DHT22;64238;51.466;7.260;2022-11-24T01:00:50;23.90;45.20
75648;DHT22;64238;51.466;7.260;2022-11-24T01:03:17;23.90;45.30
75648;DHT22;64238;51.466;7.260;2022-11-24T01:05:43;23.90;45.10
75648;DHT22;64238;51.466;7.260;2022-11-24T01:08:09;23.80;45.10
75648;DHT22;64238;51.466;7.260;2022-11-24T01:10:35;23.80;44.90
75648;DHT22;64238;51.466;7.260;2022-11-24T01:13:00;23.80;44.80
75648;DHT22;64238;51.466;7.260;2022-11-24T01:15:26;23.90;45.10
75648;DHT22;64238;51.466;7.260;2022-11-24T01:17:55;23.80;45.10
75648;DHT22;64238;51.466;7.260;2022-11-24T01:20:22;23.90;45.00
75648;DHT22;64238;51.466;7.260;2022-11-24T01:22:48;23.80;45.40
75648;DHT22;64238;51.466;7.260;2022-11-24T01:25:14;23.80;45.10
75648;DHT22;64238;51.466;7.260;2022-11-24T01:27:40;23.90;45.10
75648;DHT22;64238;51.466;7.260;2022-11-24T01:30:06;23.90;45.10
75648;DHT22;64238;51.466;7.260;2022-11-24T01:32:33;23.80;45.00
75648;DHT22;64238;51.466;7.260;2022-11-24T01:35:03;23.80;45.10
75648;DHT22;64238;51.466;7.260;2022-11-24T01:37:29;23.90;45.10
75648;DHT22;64238;51.466;7.260;2022-11-24T01:39:54;23.80;45.00
75648;DHT22;64238;51.466;7.260;2022-11-24T01:42:20;23.90;45.10
75648;DHT22;64238;51.466;7.260;2022-11-24T01:44:48;23.90;45.20
75648;DHT22;64238;51.466;7.260;2022-11-24T01:47:34;23.90;45.00
75648;DHT22;64238;51.466;7.260;2022-11-24T01:50:02;23.80;45.10
75648;DHT22;64238;51.466;7.260;2022-11-24T01:52:33;23.90;45.00
75648;DHT22;64238;51.466;7.260;2022-11-24T01:55:07;23.80;45.20
75648;DHT22;64238;51.466;7.260;2022-11-24T01:57:41;23.80;45.10
75648;DHT22;64238;51.466;7.260;2022-11-24T02:00:11;23.70;45.20
75648;DHT22;64238;51.466;7.260;2022-11-24T02:02:37;23.90;44.90
75648;DHT22;64238;51.466;7.260;2022-11-24T02:05:32;23.80;44.90
75648;DHT22;64238;51.466;7.260;2022-11-24T02:08:00;23.90;45.10
75648;DHT22;64238;51.466;7.260;2022-11-24T02:10:27;23.90;45.20
75648;DHT22;64238;51.466;7.260;2022-11-24T02:12:55;23.80;45.30
75648;DHT22;64238;51.466;7.260;2022-11-24T02:15:21;23.90;45.00
75648;DHT22;64238;51.466;7.260;2022-11-24T02:17:47;23.90;45.00
75648;DHT22;64238;51.466;7.260;2022-11-24T02:20:14;23.80;45.20
75648;DHT22;64238;51.466;7.260;2022-11-24T02:25:51;23.80;45.10
75648;DHT22;64238;51.466;7.260;2022-11-24T02:28:21;23.80;45.20
75648;DHT22;64238;51.466;7.260;2022-11-24T02:30:48;23.80;45.10
75648;DHT22;64238;51.466;7.260;2022-11-24T02:33:14;23.80;44.90
75648;DHT22;64238;51.466;7.260;2022-11-24T02:35:40;23.90;45.30
75648;DHT22;64238;51.466;7.260;2022-11-24T02:38:12;23.90;45.10
75648;DHT22;64238;51.466;7.260;2022-11-24T02:40:39;23.90;45.20
75648;DHT22;64238;51.466;7.260;2022-11-24T02:43:13;23.80;45.40
75648;DHT22;64238;51.466;7.260;2022-11-24T02:45:39;23.80;45.00
75648;DHT22;64238;51.466;7.260;2022-11-24T02:48:05;23.80;45.10
75648;DHT22;64238;51.466;7.260;2022-11-24T02:50:30;23.80;45.20
75648;DHT22;64238;51.466;7.260;2022-11-24T02:52:56;23.80;45.10
75648;DHT22;64238;51.466;7.260;2022-11-24T02:55:21;23.90;44.90
75648;DHT22;64238;51.466;7.260;2022-11-24T02:57:48;23.80;45.00
75648;DHT22;64238;51.466;7.260;2022-11-24T03:00:14;23.90;45.00
75648;DHT22;64238;51.466;7.260;2022-11-24T03:02:40;23.90;44.90
75648;DHT22;64238;51.466;7.260;2022-11-24T03:05:06;23.90;45.10
75648;DHT22;64238;51.466;7.260;2022-11-24T03:07:31;23.90;45.00
75648;DHT22;64238;51.466;7.260;2022-11-24T03:09:57;23.90;45.10
75648;DHT22;64238;51.466;7.260;2022-11-24T03:12:22;23.90;45.00
75648;DHT22;64238;51.466;7.260;2022-11-24T03:14:48;23.80;45.10
75648;DHT22;64238;51.466;7.260;2022-11-24T03:17:14;23.90;45.00
75648;DHT22;64238;51.466;7.260;2022-11-24T03:19:39;23.90;45.20
75648;DHT22;64238;51.466;7.260;2022-11-24T03:22:05;24.00;45.10
75648;DHT22;64238;51.466;7.260;2022-11-24T03:24:30;23.90;45.00
75648;DHT22;64238;51.466;7.260;2022-11-24T03:26:56;23.80;45.00
75648;DHT22;64238;51.466;7.260;2022-11-24T03:29:21;23.90;45.10
75648;DHT22;64238;51.466;7.260;2022-11-24T03:31:47;23.80;45.20
75648;DHT22;64238;51.466;7.260;2022-11-24T03:34:13;23.90;45.10
75648;DHT22;64238;51.466;7.260;2022-11-24T03:36:38;23.90;45.10
75648;DHT22;64238;51.466;7.260;2022-11-24T03:39:04;23.90;45.10
75648;DHT22;64238;51.466;7.260;2022-11-24T03:41:29;23.70;45.30
75648;DHT22;64238;51.466;7.260;2022-11-24T03:43:55;23.90;45.00
75648;DHT22;64238;51.466;7.260;2022-11-24T03:46:21;23.90;44.90
75648;DHT22;64238;51.466;7.260;2022-11-24T03:48:46;23.90;45.10
75648;DHT22;64238;51.466;7.260;2022-11-24T03:51:12;23.80;45.00
75648;DHT22;64238;51.466;7.260;2022-11-24T03:53:37;23.90;45.10
75648;DHT22;64238;51.466;7.260;2022-11-24T03:56:03;24.00;45.10
75648;DHT22;64238;51.466;7.260;2022-11-24T03:58:29;23.90;45.20
75648;DHT22;64238;51.466;7.260;2022-11-24T04:00:55;23.80;44.90
75648;DHT22;64238;51.466;7.260;2022-11-24T04:03:21;23.80;44.80
75648;DHT22;64238;51.466;7.260;2022-11-24T04:05:47;23.90;45.20
75648;DHT22;64238;51.466;7.260;2022-11-24T04:08:13;23.90;45.30
75648;DHT22;64238;51.466;7.260;2022-11-24T04:10:39;23.90;45.40
75648;DHT22;64238;51.466;7.260;2022-11-24T04:13:16;23.80;45.20
75648;DHT22;64238;51.466;7.260;2022-11-24T04:15:42;23.80;45.20
75648;DHT22;64238;51.466;7.260;2022-11-24T04:18:10;23.90;45.10
75648;DHT22;64238;51.466;7.260;2022-11-24T04:20:36;23.90;45.20
75648;DHT22;64238;51.466;7.260;2022-11-24T04:23:02;23.80;45.10
75648;DHT22;64238;51.466;7.260;2022-11-24T04:25:28;23.90;45.10
75648;DHT22;64238;51.466;7.260;2022-11-24T04:27:55;23.80;45.00
75648;DHT22;64238;51.466;7.260;2022-11-24T04:30:22;23.80;45.10
75648;DHT22;64238;51.466;7.260;2022-11-24T04:32:48;23.80;45.00
75648;DHT22;64238;51.466;7.260;2022-11-24T04:35:14;23.90;45.10
75648;DHT22;64238;51.466;7.260;2022-11-24T04:37:39;23.80;45.10
75648;DHT22;64238;51.466;7.260;2022-11-24T04:40:06;23.90;44.90
75648;DHT22;64238;51.466;7.260;2022-11-24T04:42:32;23.90;45.00
75648;DHT22;64238;51.466;7.260;2022-11-24T04:44:58;23.80;45.10
75648;DHT22;64238;51.466;7.260;2022-11-24T04:47:25;23.90;45.10
75648;DHT22;64238;51.466;7.260;2022-11-24T04:49:51;23.90;45.10
75648;DHT22;64238;51.466;7.260;2022-11-24T04:52:17;23.90;45.20
75648;DHT22;64238;51.466;7.260;2022-11-24T04:54:44;23.80;45.10
75648;DHT22;64238;51.466;7.260;2022-11-24T04:57:20;23.90;45.10
75648;DHT22;64238;51.466;7.260;2022-11-24T04:59:46;23.80;45.00
75648;DHT22;64238;51.466;7.260;2022-11-24T05:02:11;23.80;45.10
75648;DHT22;64238;51.466;7.260;2022-11-24T05:04:37;23.80;44.80
75648;DHT22;64238;51.466;7.260;2022-11-24T05:07:03;23.80;45.10
75648;DHT22;64238;51.466;7.260;2022-11-24T05:09:28;23.80;45.00
75648;DHT22;64238;51.466;7.260;2022-11-24T05:11:54;23.90;45.00
75648;DHT22;64238;51.466;7.260;2022-11-24T05:14:19;23.80;45.10
75648;DHT22;64238;51.466;7.260;2022-11-24T05:16:45;23.90;45.20
75648;DHT22;64238;51.466;7.260;2022-11-24T05:19:11;23.90;45.10
75648;DHT22;64238;51.466;7.260;2022-11-24T05:21:37;23.90;45.00
75648;DHT22;64238;51.466;7.260;2022-11-24T05:24:03;23.90;45.20
75648;DHT22;64238;51.466;7.260;2022-11-24T05:26:29;23.90;45.00
75648;DHT22;64238;51.466;7.260;2022-11-24T05:28:54;23.80;45.00
75648;DHT22;64238;51.466;7.260;2022-11-24T05:31:20;23.90;45.10
75648;DHT22;64238;51.466;7.260;2022-11-24T05:33:45;23.90;45.10
75648;DHT22;64238;51.466;7.260;2022-11-24T05:36:11;23.90;44.80
75648;DHT22;64238;51.466;7.260;2022-11-24T05:38:56;23.90;45.20
75648;DHT22;64238;51.466;7.260;2022-11-24T05:41:21;23.90;45.20
75648;DHT22;64238;51.466;7.260;2022-11-24T05:43:47;23.90;45.00
75648;DHT22;64238;51.466;7.260;2022-11-24T05:46:13;23.90;45.10
75648;DHT22;64238;51.466;7.260;2022-11-24T05:48:38;23.90;45.30
75648;DHT22;64238;51.466;7.260;2022-11-24T05:51:04;23.90;45.10
75648;DHT22;64238;51.466;7.260;2022-11-24T05:53:29;23.90;45.10
75648;DHT22;64238;51.466;7.260;2022-11-24T05:55:55;23.90;45.20
75648;DHT22;64238;51.466;7.260;2022-11-24T05:58:20;23.90;45.30
75648;DHT22;64238;51.466;7.260;2022-11-24T06:00:46;23.90;45.10
75648;DHT22;64238;51.466;7.260;2022-11-24T06:03:11;24.00;45.10
75648;DHT22;64238;51.466;7.260;2022-11-24T06:05:37;23.90;45.20
75648;DHT22;64238;51.466;7.260;2022-11-24T06:08:03;23.90;45.00
75648;DHT22;64238;51.466;7.260;2022-11-24T06:10:29;23.90;45.30
75648;DHT22;64238;51.466;7.260;2022-11-24T06:12:54;23.90;45.10
75648;DHT22;64238;51.466;7.260;2022-11-24T06:15:20;23.90;45.20
75648;DHT22;64238;51.466;7.260;2022-11-24T06:17:53;23.90;45.10
75648;DHT22;64238;51.466;7.260;2022-11-24T06:20:20;23.90;45.30
75648;DHT22;64238;51.466;7.260;2022-11-24T06:22:45;23.90;45.20
75648;DHT22;64238;51.466;7.260;2022-11-24T06:25:12;23.90;45.20
75648;DHT22;64238;51.466;7.260;2022-11-24T06:27:38;24.00;44.90
75648;DHT22;64238;51.466;7.260;2022-11-24T06:30:04;23.90;45.00
75648;DHT22;64238;51.466;7.260;2022-11-24T06:32:30;23.90;45.30
75648;DHT22;64238;51.466;7.260;2022-11-24T06:34:55;24.00;45.10
75648;DHT22;64238;51.466;7.260;2022-11-24T06:37:21;24.00;45.10
75648;DHT22;64238;51.466;7.260;2022-11-24T06:39:46;24.00;45.80
75648;DHT22;64238;51.466;7.260;2022-11-24T06:42:12;24.10;45.90
75648;DHT22;64238;51.466;7.260;2022-11-24T06:44:38;24.10;45.90
75648;DHT22;64238;51.466;7.260;2022-11-24T06:47:04;24.10;45.70
75648;DHT22;64238;51.466;7.260;2022-11-24T06:49:29;24.10;45.60
75648;DHT22;64238;51.466;7.260;2022-11-24T06:51:55;24.10;45.80
75648;DHT22;64238;51.466;7.260;2022-11-24T06:54:20;24.10;45.90
75648;DHT22;64238;51.466;7.260;2022-11-24T06:56:46;24.00;46.00
75648;DHT22;64238;51.466;7.260;2022-11-24T06:59:17;24.10;45.90
75648;DHT22;64238;51.466;7.260;2022-11-24T07:01:43;24.20;46.20
75648;DHT22;64238;51.466;7.260;2022-11-24T07:04:09;24.00;46.20
75648;DHT22;64238;51.466;7.260;2022-11-24T07:06:35;24.10;46.10
75648;DHT22;64238;51.466;7.260;2022-11-24T07:09:01;24.20;45.80
75648;DHT22;64238;51.466;7.260;2022-11-24T07:11:26;24.10;46.30
75648;DHT22;64238;51.466;7.260;2022-11-24T07:13:52;24.00;46.10
75648;DHT22;64238;51.466;7.260;2022-11-24T07:16:20;24.10;46.30
75648;DHT22;64238;51.466;7.260;2022-11-24T07:18:47;24.10;46.30
75648;DHT22;64238;51.466;7.260;2022-11-24T07:21:13;24.10;46.40
75648;DHT22;64238;51.466;7.260;2022-11-24T07:23:39;24.10;46.40
75648;DHT22;64238;51.466;7.260;2022-11-24T07:26:05;24.10;46.30
75648;DHT22;64238;51.466;7.260;2022-11-24T07:28:31;24.10;46.50
75648;DHT22;64238;51.466;7.260;2022-11-24T07:30:57;24.10;46.40
75648;DHT22;64238;51.466;7.260;2022-11-24T07:33:24;24.10;46.30
75648;DHT22;64238;51.466;7.260;2022-11-24T07:35:53;24.10;46.40
75648;DHT22;64238;51.466;7.260;2022-11-24T07:38:19;24.00;46.40
75648;DHT22;64238;51.466;7.260;2022-11-24T07:40:45;24.10;46.50
75648;DHT22;64238;51.466;7.260;2022-11-24T07:43:10;24.10;46.40
75648;DHT22;64238;51.466;7.260;2022-11-24T07:45:36;24.20;46.30
75648;DHT22;64238;51.466;7.260;2022-11-24T07:48:02;24.20;46.30
75648;DHT22;64238;51.466;7.260;2022-11-24T07:50:28;24.10;46.50
75648;DHT22;64238;51.466;7.260;2022-11-24T07:52:53;24.10;46.40
75648;DHT22;64238;51.466;7.260;2022-11-24T07:55:19;24.10;46.40
75648;DHT22;64238;51.466;7.260;2022-11-24T07:57:44;24.20;46.30
75648;DHT22;64238;51.466;7.260;2022-11-24T08:00:10;24.10;46.00
75648;DHT22;64238;51.466;7.260;2022-11-24T08:02:37;24.10;46.30
75648;DHT22;64238;51.466;7.260;2022-11-24T08:05:03;24.10;46.20
75648;DHT22;64238;51.466;7.260;2022-11-24T08:07:28;24.20;46.10
75648;DHT22;64238;51.466;7.260;2022-11-24T08:09:54;24.10;46.20
75648;DHT22;64238;51.466;7.260;2022-11-24T08:12:19;24.20;46.30
75648;DHT22;64238;51.466;7.260;2022-11-24T08:14:49;24.20;46.00
75648;DHT22;64238;51.466;7.260;2022-11-24T08:17:15;24.20;46.00
75648;DHT22;64238;51.466;7.260;2022-11-24T08:19:41;24.20;45.90
75648;DHT22;64238;51.466;7.260;2022-11-24T08:22:07;24.20;46.10
75648;DHT22;64238;51.466;7.260;2022-11-24T08:24:32;24.20;45.90
75648;DHT22;64238;51.466;7.260;2022-11-24T08:26:58;24.30;46.10
75648;DHT22;64238;51.466;7.260;2022-11-24T08:29:27;24.30;46.10
75648;DHT22;64238;51.466;7.260;2022-11-24T08:31:53;24.20;46.10
75648;DHT22;64238;51.466;7.260;2022-11-24T08:34:22;24.20;46.00
75648;DHT22;64238;51.466;7.260;2022-11-24T08:36:48;24.20;46.00
75648;DHT22;64238;51.466;7.260;2022-11-24T08:39:13;24.20;45.90
75648;DHT22;64238;51.466;7.260;2022-11-24T08:41:39;24.20;46.10
75648;DHT22;64238;51.466;7.260;2022-11-24T08:44:05;24.10;45.80
75648;DHT22;64238;51.466;7.260;2022-11-24T08:46:32;24.20;46.10
75648;DHT22;64238;51.466;7.260;2022-11-24T08:48:58;24.30;45.70
75648;DHT22;64238;51.466;7.260;2022-11-24T08:51:25;24.20;45.80
75648;DHT22;64238;51.466;7.260;2022-11-24T08:53:55;24.20;45.80
75648;DHT22;64238;51.466;7.260;2022-11-24T08:56:22;24.30;46.10
75648;DHT22;64238;51.466;7.260;2022-11-24T08:58:48;24.30;45.70
75648;DHT22;64238;51.466;7.260;2022-11-24T09:01:15;24.20;45.90
75648;DHT22;64238;51.466;7.260;2022-11-24T09:03:41;24.20;45.90
75648;DHT22;64238;51.466;7.260;2022-11-24T09:06:08;24.30;45.90
75648;DHT22;64238;51.466;7.260;2022-11-24T09:08:34;24.20;45.80
75648;DHT22;64238;51.466;7.260;2022-11-24T09:11:01;24.30;46.00
75648;DHT22;64238;51.466;7.260;2022-11-24T09:13:27;24.30;45.90
75648;DHT22;64238;51.466;7.260;2022-11-24T09:15:53;24.30;45.90
75648;DHT22;64238;51.466;7.260;2022-11-24T09:18:19;24.20;45.90
75648;DHT22;64238;51.466;7.260;2022-11-24T09:20:44;24.20;45.90
75648;DHT22;64238;51.466;7.260;2022-11-24T09:23:10;24.20;45.70
75648;DHT22;64238;51.466;7.260;2022-11-24T09:25:36;24.20;45.90
75648;DHT22;64238;51.466;7.260;2022-11-24T09:28:02;24.30;46.00
75648;DHT22;64238;51.466;7.260;2022-11-24T09:30:27;24.20;45.90
75648;DHT22;64238;51.466;7.260;2022-11-24T09:32:56;24.20;46.10
75648;DHT22;64238;51.466;7.260;2022-11-24T09:35:22;24.20;45.90
75648;DHT22;64238;51.466;7.260;2022-11-24T09:37:48;24.30;46.00
75648;DHT22;64238;51.466;7.260;2022-11-24T09:40:15;24.30;46.00
75648;DHT22;64238;51.466;7.260;2022-11-24T09:43:10;24.30;46.30
75648;DHT22;64238;51.466;7.260;2022-11-24T09:48:35;24.30;46.10
75648;DHT22;64238;51.466;7.260;2022-11-24T09:51:03;24.30;46.00
75648;DHT22;64238;51.466;7.260;2022-11-24T09:53:46;24.40;46.50
75648;DHT22;64238;51.466;7.260;2022-11-24T09:56:23;24.30;46.50
75648;DHT22;64238;51.466;7.260;2022-11-24T09:58:56;24.30;46.60
75648;DHT22;64238;51.466;7.260;2022-11-24T10:01:27;24.40;46.50
75648;DHT22;64238;51.466;7.260;2022-11-24T10:03:54;24.40;46.50
75648;DHT22;64238;51.466;7.260;2022-11-24T10:06:26;24.50;46.30
75648;DHT22;64238;51.466;7.260;2022-11-24T10:11:41;24.50;46.70
75648;DHT22;64238;51.466;7.260;2022-11-24T10:17:14;24.50;46.90
75648;DHT22;64238;51.466;7.260;2022-11-24T10:19:52;24.50;46.80
75648;DHT22;64238;51.466;7.260;2022-11-24T10:22:34;24.50;47.00
75648;DHT22;64238;51.466;7.260;2022-11-24T10:25:18;24.60;46.90
75648;DHT22;64238;51.466;7.260;2022-11-24T10:28:02;24.60;46.90
75648;DHT22;64238;51.466;7.260;2022-11-24T10:30:29;24.70;46.90
75648;DHT22;64238;51.466;7.260;2022-11-24T10:32:59;24.60;46.70
75648;DHT22;64238;51.466;7.260;2022-11-24T10:35:44;24.60;46.50
75648;DHT22;64238;51.466;7.260;2022-11-24T10:38:26;24.60;46.70
75648;DHT22;64238;51.466;7.260;2022-11-24T10:41:02;24.60;46.60
75648;DHT22;64238;51.466;7.260;2022-11-24T10:43:30;24.70;46.70
75648;DHT22;64238;51.466;7.260;2022-11-24T10:46:25;24.80;46.70
75648;DHT22;64238;51.466;7.260;2022-11-24T10:49:03;24.80;47.00
75648;DHT22;64238;51.466;7.260;2022-11-24T10:54:16;25.00;47.00
75648;DHT22;64238;51.466;7.260;2022-11-24T10:56:43;25.00;46.90
75648;DHT22;64238;51.466;7.260;2022-11-24T10:59:33;25.20;46.90
75648;DHT22;64238;51.466;7.260;2022-11-24T11:01:59;25.10;46.70
75648;DHT22;64238;51.466;7.260;2022-11-24T11:04:27;25.30;46.60
75648;DHT22;64238;51.466;7.260;2022-11-24T11:07:15;25.30;46.70
75648;DHT22;64238;51.466;7.260;2022-11-24T11:09:43;25.30;46.80
75648;DHT22;64238;51.466;7.260;2022-11-24T11:12:22;25.30;46.40
75648;DHT22;64238;51.466;7.260;2022-11-24T11:14:49;25.30;46.40
75648;DHT22;64238;51.466;7.260;2022-11-24T11:17:36;25.30;46.50
75648;DHT22;64238;51.466;7.260;2022-11-24T11:20:05;25.30;46.40
75648;DHT22;64238;51.466;7.260;2022-11-24T11:25:17;25.30;46.00
75648;DHT22;64238;51.466;7.260;2022-11-24T11:27:43;25.30;46.00
75648;DHT22;64238;51.466;7.260;2022-11-24T11:35:23;25.40;46.00
75648;DHT22;64238;51.466;7.260;2022-11-24T11:37:52;25.50;45.90
75648;DHT22;64238;51.466;7.260;2022-11-24T11:40:25;25.50;45.80
75648;DHT22;64238;51.466;7.260;2022-11-24T11:43:18;25.50;46.10
75648;DHT22;64238;51.466;7.260;2022-11-24T11:45:56;25.60;46.10
75648;DHT22;64238;51.466;7.260;2022-11-24T11:48:31;25.70;46.00
75648;DHT22;64238;51.466;7.260;2022-11-24T11:54:21;25.90;45.80
75648;DHT22;64238;51.466;7.260;2022-11-24T11:57:21;25.80;45.90
75648;DHT22;64238;51.466;7.260;2022-11-24T12:00:13;25.90;46.00
75648;DHT22;64238;51.466;7.260;2022-11-24T12:02:49;25.80;45.80
75648;DHT22;64238;51.466;7.260;2022-11-24T12:08:39;25.90;45.90
75648;DHT22;64238;51.466;7.260;2022-11-24T12:11:15;26.00;46.10
75648;DHT22;64238;51.466;7.260;2022-11-24T12:14:08;25.90;45.80
75648;DHT22;64238;51.466;7.260;2022-11-24T12:19:32;26.10;45.80
75648;DHT22;64238;51.466;7.260;2022-11-24T12:22:12;26.10;45.60
75648;DHT22;64238;51.466;7.260;2022-11-24T12:30:17;26.20;46.10
75648;DHT22;64238;51.466;7.260;2022-11-24T12:33:10;26.30;45.80
75648;DHT22;64238;51.466;7.260;2022-11-24T12:35:42;26.40;44.60
75648;DHT22;64238;51.466;7.260;2022-11-24T12:38:17;26.40;44.50
75648;DHT22;64238;51.466;7.260;2022-11-24T12:43:35;26.90;44.10
75648;DHT22;64238;51.466;7.260;2022-11-24T12:46:11;27.00;43.90
75648;DHT22;64238;51.466;7.260;2022-11-24T12:48:54;27.10;43.50
75648;DHT22;64238;51.466;7.260;2022-11-24T12:51:32;27.20;43.50
75648;DHT22;64238;51.466;7.260;2022-11-24T12:54:02;27.40;43.40
75648;DHT22;64238;51.466;7.260;2022-11-24T12:56:52;27.50;43.50
75648;DHT22;64238;51.466;7.260;2022-11-24T13:05:04;27.40;43.30
75648;DHT22;64238;51.466;7.260;2022-11-24T13:07:45;27.30;43.70
75648;DHT22;64238;51.466;7.260;2022-11-24T13:10:27;27.30;43.50
75648;DHT22;64238;51.466;7.260;2022-11-24T13:13:01;27.20;43.60
75648;DHT22;64238;51.466;7.260;2022-11-24T13:15:28;27.20;43.50
75648;DHT22;64238;51.466;7.260;2022-11-24T13:17:54;27.10;43.70
75648;DHT22;64238;51.466;7.260;2022-11-24T13:22:53;27.10;43.60
75648;DHT22;64238;51.466;7.260;2022-11-24T13:25:31;27.30;43.50
75648;DHT22;64238;51.466;7.260;2022-11-24T13:28:01;27.30;43.40
75648;DHT22;64238;51.466;7.260;2022-11-24T13:35:40;27.40;43.60
75648;DHT22;64238;51.466;7.260;2022-11-24T13:47:06;27.70;43.20
75648;DHT22;64238;51.466;7.260;2022-11-24T13:49:46;27.60;42.90
75648;DHT22;64238;51.466;7.260;2022-11-24T13:57:45;27.70;42.90
75648;DHT22;64238;51.466;7.260;2022-11-24T14:00:26;27.60;43.10
75648;DHT22;64238;51.466;7.260;2022-11-24T14:02:56;27.70;43.00
75648;DHT22;64238;51.466;7.260;2022-11-24T14:05:25;27.70;43.10
75648;DHT22;64238;51.466;7.260;2022-11-24T14:07:53;27.70;42.60
75648;DHT22;64238;51.466;7.260;2022-11-24T14:10:22;27.60;42.90
75648;DHT22;64238;51.466;7.260;2022-11-24T14:13:15;27.60;43.00
75648;DHT22;64238;51.466;7.260;2022-11-24T14:15:41;27.60;42.90
75648;DHT22;64238;51.466;7.260;2022-11-24T14:18:20;27.50;43.10
75648;DHT22;64238;51.466;7.260;2022-11-24T14:20:45;27.50;43.20
75648;DHT22;64238;51.466;7.260;2022-11-24T14:23:11;27.40;43.10
75648;DHT22;64238;51.466;7.260;2022-11-24T14:25:37;27.40;43.40
75648;DHT22;64238;51.466;7.260;2022-11-24T14:28:22;27.40;43.50
75648;DHT22;64238;51.466;7.260;2022-11-24T14:30:48;27.40;43.40
75648;DHT22;64238;51.466;7.260;2022-11-24T14:33:13;27.30;43.40
75648;DHT22;64238;51.466;7.260;2022-11-24T14:35:44;27.20;43.50
75648;DHT22;64238;51.466;7.260;2022-11-24T14:38:11;27.20;43.60
75648;DHT22;64238;51.466;7.260;2022-11-24T14:40:47;27.20;43.50
75648;DHT22;64238;51.466;7.260;2022-11-24T14:43:28;27.10;44.00
75648;DHT22;64238;51.466;7.260;2022-11-24T14:46:17;27.00;43.60
75648;DHT22;64238;51.466;7.260;2022-11-24T14:48:48;27.00;43.70
75648;DHT22;64238;51.466;7.260;2022-11-24T14:51:21;27.00;43.60
75648;DHT22;64238;51.466;7.260;2022-11-24T14:54:17;26.90;43.60
75648;DHT22;64238;51.466;7.260;2022-11-24T14:57:04;26.90;43.90
75648;DHT22;64238;51.466;7.260;2022-11-24T14:59:32;26.90;43.80
75648;DHT22;64238;51.466;7.260;2022-11-24T15:01:59;26.80;43.80
75648;DHT22;64238;51.466;7.260;2022-11-24T15:04:27;26.80;44.10
75648;DHT22;64238;51.466;7.260;2022-11-24T15:10:19;26.70;44.30
75648;DHT22;64238;51.466;7.260;2022-11-24T15:13:12;26.50;44.20
75648;DHT22;64238;51.466;7.260;2022-11-24T15:15:48;26.50;44.30
75648;DHT22;64238;51.466;7.260;2022-11-24T15:18:43;26.50;44.50
75648;DHT22;64238;51.466;7.260;2022-11-24T15:21:10;26.50;44.60
75648;DHT22;64238;51.466;7.260;2022-11-24T15:23:36;26.40;44.70
75648;DHT22;64238;51.466;7.260;2022-11-24T15:28:30;26.30;45.50
75648;DHT22;64238;51.466;7.260;2022-11-24T15:31:07;26.30;45.80
75648;DHT22;64238;51.466;7.260;2022-11-24T15:33:33;26.20;45.70
75648;DHT22;64238;51.466;7.260;2022-11-24T15:35:59;26.20;45.70
75648;DHT22;64238;51.466;7.260;2022-11-24T15:38:25;26.20;45.70
75648;DHT22;64238;51.466;7.260;2022-11-24T15:40:52;26.20;45.80
75648;DHT22;64238;51.466;7.260;2022-11-24T15:43:36;26.10;45.70
75648;DHT22;64238;51.466;7.260;2022-11-24T15:46:04;26.10;45.80
75648;DHT22;64238;51.466;7.260;2022-11-24T15:48:30;26.10;45.90
75648;DHT22;64238;51.466;7.260;2022-11-24T15:50:58;26.10;45.80
75648;DHT22;64238;51.466;7.260;2022-11-24T15:53:45;26.00;46.00
75648;DHT22;64238;51.466;7.260;2022-11-24T15:56:24;26.00;45.90
75648;DHT22;64238;51.466;7.260;2022-11-24T15:58:51;25.90;45.80
75648;DHT22;64238;51.466;7.260;2022-11-24T16:01:17;25.90;45.80
75648;DHT22;64238;51.466;7.260;2022-11-24T16:03:43;25.90;46.00
75648;DHT22;64238;51.466;7.260;2022-11-24T16:06:12;25.90;46.30
75648;DHT22;64238;51.466;7.260;2022-11-24T16:08:39;25.80;46.00
75648;DHT22;64238;51.466;7.260;2022-11-24T16:11:04;25.80;46.20
75648;DHT22;64238;51.466;7.260;2022-11-24T16:13:30;25.80;45.90
75648;DHT22;64238;51.466;7.260;2022-11-24T16:15:55;25.80;46.00
75648;DHT22;64238;51.466;7.260;2022-11-24T16:18:21;25.70;46.30
75648;DHT22;64238;51.466;7.260;2022-11-24T16:20:46;25.70;46.10
75648;DHT22;64238;51.466;7.260;2022-11-24T16:23:12;25.70;46.10
75648;DHT22;64238;51.466;7.260;2022-11-24T16:25:38;25.60;46.30
75648;DHT22;64238;51.466;7.260;2022-11-24T16:28:03;25.60;46.20
75648;DHT22;64238;51.466;7.260;2022-11-24T16:30:29;25.60;46.30
75648;DHT22;64238;51.466;7.260;2022-11-24T16:32:54;25.60;46.30
75648;DHT22;64238;51.466;7.260;2022-11-24T16:35:20;25.50;46.30
75648;DHT22;64238;51.466;7.260;2022-11-24T16:37:45;25.50;46.20
75648;DHT22;64238;51.466;7.260;2022-11-24T16:40:11;25.40;46.00
75648;DHT22;64238;51.466;7.260;2022-11-24T16:42:37;25.50;46.20
75648;DHT22;64238;51.466;7.260;2022-11-24T16:45:03;25.40;46.10
75648;DHT22;64238;51.466;7.260;2022-11-24T16:47:28;25.40;46.30
75648;DHT22;64238;51.466;7.260;2022-11-24T16:49:54;25.40;46.20
75648;DHT22;64238;51.466;7.260;2022-11-24T16:52:19;25.40;46.20
75648;DHT22;64238;51.466;7.260;2022-11-24T16:54:45;25.40;46.00
75648;DHT22;64238;51.466;7.260;2022-11-24T16:57:13;25.40;45.90